
Distance (Route):
Temperature : -29.4°C
Humidity : 42.8%
Pressure : 0hPa| Receiver | Frames | First received | Last received |
|---|---|---|---|
| LZ4TU-5 | 123 | 2026-08-30 05:29:13 | 2026-08-30 06:55:07 |
| 9A1FER-3 | 57 | 2026-08-30 06:19:45 | 2026-08-30 06:45:08 |
| OM5KV | 49 | 2026-08-30 06:00:48 | 2026-08-30 06:12:34 |
| OE3JTB-15 | 15 | 2026-08-30 06:11:52 | 2026-08-30 06:41:54 |
| 9A1FER-10 | 6 | 2026-08-30 06:42:42 | 2026-08-30 06:44:49 |
| Receiver | Date | Latitude | Longitude | Direction | Speed | Altitude | Climb | Temperature | Humidity | Pressure | Voltage | Killtimer | Uptime | BKT | XDATA |
|---|---|---|---|---|---|---|---|---|---|---|---|---|---|---|---|
| LZ4TU-5 | 2026-08-30 06:55:07 | 44.64024 | 20.86502 | 112° | 60km/h | 8843m | -20.5m/s | -29.4°C | 42.8% | 0hPa | 5.5V | 00:00:00 | 00:00:00 | 00:00:00 | |
| LZ4TU-5 | 2026-08-30 06:55:02 | 44.64053 | 20.86400 | 113° | 57km/h | 8931m | -20.0m/s | -30.2°C | 46.2% | 0hPa | 5.5V | 00:00:00 | 00:00:00 | 00:00:00 | |
| LZ4TU-5 | 2026-08-30 06:53:35 | 44.64585 | 20.84769 | 122° | 60km/h | 10765m | -21.8m/s | -46.1°C | 57.7% | 0hPa | 5.5V | 00:00:00 | 00:00:00 | 00:00:00 | |
| LZ4TU-5 | 2026-08-30 06:53:30 | 44.64626 | 20.84673 | 120° | 60km/h | 10863m | -21.3m/s | -47.1°C | 56.7% | 0hPa | 5.5V | 00:00:00 | 00:00:00 | 00:00:00 | |
| LZ4TU-5 | 2026-08-30 06:52:02 | 44.65157 | 20.82801 | 111° | 62km/h | 12932m | -25.7m/s | -58.5°C | 9.8% | 0hPa | 5.5V | 00:00:00 | 00:00:00 | 00:00:00 | |
| LZ4TU-5 | 2026-08-30 06:51:57 | 44.65183 | 20.82693 | 110° | 69km/h | 13065m | -25.6m/s | -58.9°C | 8.2% | 0hPa | 5.5V | 00:00:00 | 00:00:00 | 00:00:00 | |
| LZ4TU-5 | 2026-08-30 06:50:18 | 44.65608 | 20.81051 | 85° | 27km/h | 15865m | -31.8m/s | -59.1°C | 0.0% | 0hPa | 5.5V | 00:00:00 | 00:00:00 | 00:00:00 | |
| LZ4TU-5 | 2026-08-30 06:50:13 | 44.65602 | 20.81001 | 84° | 29km/h | 16022m | -32.1m/s | -58.9°C | 0.0% | 0hPa | 5.5V | 00:00:00 | 00:00:00 | 00:00:00 | |
| LZ4TU-5 | 2026-08-30 06:48:45 | 44.65661 | 20.80393 | 231° | 5km/h | 19118m | -40.5m/s | -55.2°C | 0.0% | 0hPa | 5.5V | 00:00:00 | 00:00:00 | 00:00:00 | |
| LZ4TU-5 | 2026-08-30 06:48:41 | 44.65665 | 20.80403 | 264° | 11km/h | 19269m | -40.5m/s | -54.8°C | 0.0% | 0hPa | 5.5V | 00:00:00 | 00:00:00 | 00:00:00 | |
| LZ4TU-5 | 2026-08-30 06:48:29 | 44.65663 | 20.80434 | 251° | 13km/h | 19765m | -41.4m/s | -55.7°C | 0.0% | 0hPa | 5.5V | 00:00:00 | 00:00:00 | 00:00:00 | |
| LZ4TU-5 | 2026-08-30 06:48:24 | 44.65666 | 20.80462 | 285° | 18km/h | 19971m | -41.7m/s | -55.7°C | 0.0% | 0hPa | 5.5V | 00:00:00 | 00:00:00 | 00:00:00 | |
| LZ4TU-5 | 2026-08-30 06:48:15 | 44.65655 | 20.80492 | 291° | 5km/h | 20337m | -44.2m/s | -56.4°C | 0.0% | 0hPa | 5.5V | 00:00:00 | 00:00:00 | 00:00:00 | |
| LZ4TU-5 | 2026-08-30 06:48:11 | 44.65651 | 20.80500 | 303° | 11km/h | 20506m | -43.4m/s | -56.5°C | 0.0% | 0hPa | 5.5V | 00:00:00 | 00:00:00 | 00:00:00 | |
| LZ4TU-5 | 2026-08-30 06:48:06 | 44.65641 | 20.80519 | 317° | 13km/h | 20729m | -43.5m/s | -57.2°C | 0.0% | 0hPa | 5.5V | 00:00:00 | 00:00:00 | 00:00:00 | |
| LZ4TU-5 | 2026-08-30 06:47:58 | 44.65629 | 20.80532 | 349° | 5km/h | 21080m | -43.6m/s | -56.9°C | 0.0% | 0hPa | 5.5V | 00:00:00 | 00:00:00 | 00:00:00 | |
| LZ4TU-5 | 2026-08-30 06:46:30 | 44.65536 | 20.80928 | 292° | 11km/h | 25557m | -59.4m/s | -50.6°C | 0.9% | 0hPa | 5.5V | 00:00:00 | 00:00:00 | 00:00:00 | |
| LZ4TU-5 | 2026-08-30 06:46:26 | 44.65530 | 20.80940 | 290° | 7km/h | 25794m | -60.3m/s | -50.0°C | 1.1% | 0hPa | 5.5V | 00:00:00 | 00:00:00 | 00:00:00 | |
| LZ4TU-5 | 2026-08-30 06:46:20 | 44.65532 | 20.80952 | 300° | 9km/h | 26148m | -60.8m/s | -48.3°C | 1.0% | 0hPa | 5.5V | 00:00:00 | 00:00:00 | 00:00:00 | |
| 9A1FER-3 | 2026-08-30 06:45:08 | 44.65552 | 20.80894 | 118° | 20km/h | 31028m | -65.0m/s | -40.2°C | 0% | 0hPa | 5.5V | 00:00:00 | 00:00:00 | 00:00:00 | |
| LZ4TU-5 | 2026-08-30 06:44:54 | 44.65612 | 20.80884 | 108° | 16km/h | 31399m | 5.7m/s | -41.3°C | 2.8% | 0hPa | 5.5V | 00:00:00 | 00:00:00 | 00:00:00 | |
| 9A1FER-3 | 2026-08-30 06:44:52 | 44.65614 | 20.80872 | 109° | 15km/h | 31386m | 7.0m/s | -41.2°C | 0% | 0hPa | 5.5V | 00:00:00 | 00:00:00 | 00:00:00 | |
| LZ4TU-5 | 2026-08-30 06:44:50 | 44.65618 | 20.80865 | 168° | 9km/h | 31372m | 7.2m/s | -41.3°C | 2.8% | 0hPa | 5.5V | 00:00:00 | 00:00:00 | 00:00:00 | |
| 9A1FER-10 | 2026-08-30 06:44:49 | 44.65619 | 20.80864 | 201° | 15km/h | 31365m | 7.0m/s | -41.3°C | 0% | 0hPa | 5.5V | 00:00:00 | 00:00:00 | 00:00:00 | |
| 9A1FER-3 | 2026-08-30 06:44:37 | 44.65638 | 20.80834 | 83° | 18km/h | 31285m | 6.6m/s | -41.3°C | 0% | 0hPa | 5.5V | 00:00:00 | 00:00:00 | 00:00:00 | |
| 9A1FER-10 | 2026-08-30 06:44:23 | 44.65682 | 20.80787 | 127° | 15km/h | 31191m | 8.1m/s | -41.2°C | 0% | 0hPa | 5.5V | 00:00:00 | 00:00:00 | 00:00:00 | |
| 9A1FER-3 | 2026-08-30 06:44:21 | 44.65690 | 20.80774 | 156° | 16km/h | 31176m | 6.4m/s | -41.0°C | 0% | 0hPa | 5.5V | 00:00:00 | 00:00:00 | 00:00:00 | |
| 9A1FER-10 | 2026-08-30 06:44:07 | 44.65724 | 20.80725 | 122° | 13km/h | 31086m | 7.9m/s | -40.9°C | 0% | 0hPa | 5.5V | 00:00:00 | 00:00:00 | 00:00:00 | |
| 9A1FER-3 | 2026-08-30 06:43:51 | 44.65725 | 20.80660 | 23° | 15km/h | 30980m | 6.5m/s | -41.3°C | 0% | 0hPa | 5.5V | 00:00:00 | 00:00:00 | 00:00:00 | |
| 9A1FER-3 | 2026-08-30 06:43:36 | 44.65711 | 20.80631 | 57° | 11km/h | 30881m | 7.1m/s | -41.3°C | 0% | 0hPa | 5.5V | 00:00:00 | 00:00:00 | 00:00:00 | |
| 9A1FER-10 | 2026-08-30 06:43:27 | 44.65704 | 20.80609 | 256° | 13km/h | 30821m | 7.0m/s | -41.9°C | 0% | 0hPa | 5.5V | 00:00:00 | 00:00:00 | 00:00:00 | |
| LZ4TU-5 | 2026-08-30 06:43:25 | 44.65705 | 20.80623 | 278° | 20km/h | 30807m | 7.1m/s | -42.3°C | 2.5% | 0hPa | 5.5V | 00:00:00 | 00:00:00 | 00:00:00 | |
| 9A1FER-3 | 2026-08-30 06:43:21 | 44.65703 | 20.80633 | 147° | 18km/h | 30781m | 7.8m/s | -41.8°C | 0% | 0hPa | 5.5V | 00:00:00 | 00:00:00 | 00:00:00 | |
| LZ4TU-5 | 2026-08-30 06:43:20 | 44.65706 | 20.80630 | 133° | 18km/h | 30774m | 6.3m/s | -42.2°C | 2.5% | 0hPa | 5.5V | 00:00:00 | 00:00:00 | 00:00:00 | |
| 9A1FER-3 | 2026-08-30 06:43:06 | 44.65727 | 20.80584 | 106° | 22km/h | 30681m | 5.5m/s | -41.9°C | 0% | 0hPa | 5.5V | 00:00:00 | 00:00:00 | 00:00:00 | |
| 9A1FER-10 | 2026-08-30 06:43:02 | 44.65737 | 20.80573 | 239° | 24km/h | 30653m | 8.9m/s | -42.1°C | 0% | 0hPa | 5.5V | 00:00:00 | 00:00:00 | 00:00:00 | |
| 9A1FER-3 | 2026-08-30 06:42:50 | 44.65754 | 20.80541 | 209° | 16km/h | 30562m | 6.7m/s | -42.3°C | 0% | 0hPa | 5.5V | 00:00:00 | 00:00:00 | 00:00:00 | |
| 9A1FER-10 | 2026-08-30 06:42:42 | 44.65761 | 20.80547 | 88° | 15km/h | 30500m | 7.3m/s | -42.7°C | 0% | 0hPa | 5.5V | 00:00:00 | 00:00:00 | 00:00:00 | |
| 9A1FER-3 | 2026-08-30 06:42:32 | 44.65760 | 20.80534 | 73° | 18km/h | 30431m | 7.9m/s | -43.0°C | 0% | 0hPa | 5.5V | 00:00:00 | 00:00:00 | 00:00:00 | |
| 9A1FER-3 | 2026-08-30 06:42:15 | 44.65756 | 20.80455 | 108° | 22km/h | 30312m | 8.0m/s | -42.7°C | 0% | 0hPa | 5.5V | 00:00:00 | 00:00:00 | 00:00:00 | |
| 9A1FER-3 | 2026-08-30 06:42:00 | 44.65714 | 20.80362 | 55° | 22km/h | 30205m | 5.9m/s | -42.9°C | 0% | 0hPa | 5.5V | 00:00:00 | 00:00:00 | 00:00:00 | |
| OE3JTB-15 | 2026-08-30 06:41:54 | 44.65703 | 20.80315 | 89° | 18km/h | 30161m | 8.3m/s | -42.9°C | 0% | 0hPa | 5.5V | 00:00:00 | 00:00:00 | 00:00:00 | |
| LZ4TU-5 | 2026-08-30 06:41:48 | 44.65691 | 20.80284 | 52° | 33km/h | 30115m | 7.6m/s | -43.4°C | 2.5% | 0hPa | 5.5V | 00:00:00 | 00:00:00 | 00:00:00 | |
| 9A1FER-3 | 2026-08-30 06:41:44 | 44.65675 | 20.80261 | 73° | 20km/h | 30086m | 6.9m/s | -42.9°C | 0% | 0hPa | 5.5V | 00:00:00 | 00:00:00 | 00:00:00 | |
| LZ4TU-5 | 2026-08-30 06:41:43 | 44.65676 | 20.80257 | 94° | 15km/h | 30078m | 8.9m/s | -43.2°C | 2.4% | 0hPa | 5.5V | 00:00:00 | 00:00:00 | 00:00:00 | |
| LZ4TU-5 | 2026-08-30 06:41:38 | 44.65665 | 20.80237 | 6° | 24km/h | 30044m | 7.4m/s | -43.1°C | 2.3% | 0hPa | 5.5V | 00:00:00 | 00:00:00 | 00:00:00 | |
| 9A1FER-3 | 2026-08-30 06:41:29 | 44.65646 | 20.80193 | 292° | 18km/h | 29974m | 7.1m/s | -42.4°C | 0% | 0hPa | 5.5V | 00:00:00 | 00:00:00 | 00:00:00 | |
| 9A1FER-3 | 2026-08-30 06:41:13 | 44.65578 | 20.80172 | 354° | 16km/h | 29857m | 7.4m/s | -43.1°C | 0% | 0hPa | 5.5V | 00:00:00 | 00:00:00 | 00:00:00 | |
| 9A1FER-3 | 2026-08-30 06:40:57 | 44.65520 | 20.80199 | 312° | 16km/h | 29745m | 7.6m/s | -43.8°C | 0% | 0hPa | 5.5V | 00:00:00 | 00:00:00 | 00:00:00 | |
| 9A1FER-3 | 2026-08-30 06:40:41 | 44.65516 | 20.80258 | 249° | 22km/h | 29633m | 7.9m/s | -44.2°C | 0% | 0hPa | 5.5V | 00:00:00 | 00:00:00 | 00:00:00 | |
| OE3JTB-15 | 2026-08-30 06:40:30 | 44.65546 | 20.80250 | 190° | 15km/h | 29557m | 5.5m/s | -44.8°C | 0% | 0hPa | 5.5V | 00:00:00 | 00:00:00 | 00:00:00 | |
| 9A1FER-3 | 2026-08-30 06:40:25 | 44.65548 | 20.80219 | 101° | 20km/h | 29520m | 7.2m/s | -44.8°C | 0% | 0hPa | 5.5V | 00:00:00 | 00:00:00 | 00:00:00 | |
| LZ4TU-5 | 2026-08-30 06:40:09 | 44.65587 | 20.80148 | 126° | 29km/h | 29412m | 4.9m/s | -45.6°C | 2.5% | 0hPa | 5.5V | 00:00:00 | 00:00:00 | 00:00:00 | |
| 9A1FER-3 | 2026-08-30 06:40:08 | 44.65591 | 20.80140 | 121° | 11km/h | 29407m | 6.0m/s | -45.2°C | 0% | 0hPa | 5.5V | 00:00:00 | 00:00:00 | 00:00:00 | |
| LZ4TU-5 | 2026-08-30 06:40:05 | 44.65590 | 20.80129 | 16° | 13km/h | 29385m | 6.0m/s | -45.8°C | 2.5% | 0hPa | 5.5V | 00:00:00 | 00:00:00 | 00:00:00 | |
| 9A1FER-3 | 2026-08-30 06:39:51 | 44.65586 | 20.80085 | 50° | 22km/h | 29287m | 7.1m/s | -45.5°C | 0% | 0hPa | 5.5V | 00:00:00 | 00:00:00 | 00:00:00 | |
| 9A1FER-3 | 2026-08-30 06:39:36 | 44.65546 | 20.80060 | 1° | 11km/h | 29183m | 6.8m/s | -45.5°C | 0% | 0hPa | 5.5V | 00:00:00 | 00:00:00 | 00:00:00 | |
| 9A1FER-3 | 2026-08-30 06:39:20 | 44.65518 | 20.80045 | 78° | 7km/h | 29073m | 5.5m/s | -45.5°C | 0% | 0hPa | 5.5V | 00:00:00 | 00:00:00 | 00:00:00 | |
| 9A1FER-3 | 2026-08-30 06:39:01 | 44.65514 | 20.80079 | 125° | 11km/h | 28941m | 8.3m/s | -45.2°C | 0% | 0hPa | 5.5V | 00:00:00 | 00:00:00 | 00:00:00 | |
| 9A1FER-3 | 2026-08-30 06:38:43 | 44.65529 | 20.80080 | 252° | 9km/h | 28815m | 6.5m/s | -45.2°C | 0% | 0hPa | 5.5V | 00:00:00 | 00:00:00 | 00:00:00 | |
| LZ4TU-5 | 2026-08-30 06:38:39 | 44.65536 | 20.80071 | 121° | 18km/h | 28789m | 6.5m/s | -45.5°C | 2.3% | 0hPa | 5.5V | 00:00:00 | 00:00:00 | 00:00:00 | |
| LZ4TU-5 | 2026-08-30 06:38:34 | 44.65545 | 20.80059 | 168° | 13km/h | 28754m | 6.7m/s | -45.4°C | 2.3% | 0hPa | 5.5V | 00:00:00 | 00:00:00 | 00:00:00 | |
| 9A1FER-3 | 2026-08-30 06:38:24 | 44.65544 | 20.80024 | 105° | 13km/h | 28682m | 7.2m/s | -45.1°C | 0% | 0hPa | 5.5V | 00:00:00 | 00:00:00 | 00:00:00 | |
| OE3JTB-15 | 2026-08-30 06:38:13 | 44.65540 | 20.79988 | 36° | 24km/h | 28605m | 5.9m/s | -45.2°C | 0% | 0hPa | 5.5V | 00:00:00 | 00:00:00 | 00:00:00 | |
| 9A1FER-3 | 2026-08-30 06:37:54 | 44.65498 | 20.79982 | 344° | 15km/h | 28477m | 5.6m/s | -45.5°C | 0% | 0hPa | 5.5V | 00:00:00 | 00:00:00 | 00:00:00 | |
| 9A1FER-3 | 2026-08-30 06:37:37 | 44.65512 | 20.79937 | 175° | 11km/h | 28363m | 6.1m/s | -45.9°C | 0% | 0hPa | 5.5V | 00:00:00 | 00:00:00 | 00:00:00 | |
| 9A1FER-3 | 2026-08-30 06:37:22 | 44.65535 | 20.79910 | 112° | 11km/h | 28260m | 7.0m/s | -46.1°C | 0% | 0hPa | 5.5V | 00:00:00 | 00:00:00 | 00:00:00 | |
| LZ4TU-5 | 2026-08-30 06:37:06 | 44.65543 | 20.79891 | 289° | 20km/h | 28150m | 5.4m/s | -46.9°C | 1.7% | 0hPa | 5.5V | 00:00:00 | 00:00:00 | 00:00:00 | |
| 9A1FER-3 | 2026-08-30 06:37:05 | 44.65542 | 20.79897 | 289° | 18km/h | 28145m | 5.0m/s | -46.5°C | 0% | 0hPa | 5.5V | 00:00:00 | 00:00:00 | 00:00:00 | |
| LZ4TU-5 | 2026-08-30 06:37:01 | 44.65541 | 20.79886 | 100° | 24km/h | 28117m | 5.2m/s | -46.9°C | 1.7% | 0hPa | 5.5V | 00:00:00 | 00:00:00 | 00:00:00 | |
| LZ4TU-5 | 2026-08-30 06:36:56 | 44.65542 | 20.79873 | 268° | 7km/h | 28082m | 6.8m/s | -47.1°C | 1.7% | 0hPa | 5.5V | 00:00:00 | 00:00:00 | 00:00:00 | |
| 9A1FER-3 | 2026-08-30 06:36:48 | 44.65565 | 20.79875 | 148° | 16km/h | 28036m | 5.8m/s | -46.7°C | 0% | 0hPa | 5.5V | 00:00:00 | 00:00:00 | 00:00:00 | |
| 9A1FER-3 | 2026-08-30 06:36:32 | 44.65596 | 20.79885 | 265° | 15km/h | 27928m | 7.4m/s | -46.9°C | 0% | 0hPa | 5.5V | 00:00:00 | 00:00:00 | 00:00:00 | |
| 9A1FER-3 | 2026-08-30 06:36:12 | 44.65608 | 20.79819 | 126° | 20km/h | 27790m | 8.4m/s | -46.6°C | 0% | 0hPa | 5.5V | 00:00:00 | 00:00:00 | 00:00:00 | |
| 9A1FER-3 | 2026-08-30 06:35:55 | 44.65627 | 20.79732 | 120° | 15km/h | 27678m | 7.6m/s | -46.8°C | 0% | 0hPa | 5.5V | 00:00:00 | 00:00:00 | 00:00:00 | |
| 9A1FER-3 | 2026-08-30 06:35:40 | 44.65619 | 20.79652 | 49° | 9km/h | 27568m | 5.7m/s | -46.8°C | 0% | 0hPa | 5.5V | 00:00:00 | 00:00:00 | 00:00:00 | |
| LZ4TU-5 | 2026-08-30 06:35:31 | 44.65620 | 20.79633 | 64° | 5km/h | 27508m | 7.5m/s | -47.4°C | 1.8% | 0hPa | 5.5V | 00:00:00 | 00:00:00 | 00:00:00 | |
| LZ4TU-5 | 2026-08-30 06:35:26 | 44.65615 | 20.79625 | 271° | 5km/h | 27473m | 5.5m/s | -47.4°C | 1.8% | 0hPa | 5.5V | 00:00:00 | 00:00:00 | 00:00:00 | |
| 9A1FER-3 | 2026-08-30 06:35:25 | 44.65615 | 20.79627 | 235° | 7km/h | 27467m | 6.9m/s | -46.8°C | 0% | 0hPa | 5.5V | 00:00:00 | 00:00:00 | 00:00:00 | |
| 9A1FER-3 | 2026-08-30 06:34:56 | 44.65606 | 20.79615 | 52° | 13km/h | 27263m | 5.5m/s | -46.7°C | 0% | 0hPa | 5.5V | 00:00:00 | 00:00:00 | 00:00:00 | |
| 9A1FER-3 | 2026-08-30 06:34:32 | 44.65591 | 20.79644 | 292° | 16km/h | 27096m | 8.4m/s | -47.2°C | 0% | 0hPa | 5.5V | 00:00:00 | 00:00:00 | 00:00:00 | |
| 9A1FER-3 | 2026-08-30 06:34:14 | 44.65638 | 20.79723 | 175° | 16km/h | 26971m | 6.5m/s | -46.8°C | 0% | 0hPa | 5.5V | 00:00:00 | 00:00:00 | 00:00:00 | |
| 9A1FER-3 | 2026-08-30 06:33:58 | 44.65667 | 20.79793 | 349° | 11km/h | 26863m | 6.9m/s | -46.7°C | 0% | 0hPa | 5.5V | 00:00:00 | 00:00:00 | 00:00:00 | |
| LZ4TU-5 | 2026-08-30 06:33:55 | 44.65668 | 20.79797 | 224° | 13km/h | 26843m | 7.1m/s | -47.2°C | 1.4% | 0hPa | 5.6V | 00:00:00 | 00:00:00 | 00:00:00 | |
| LZ4TU-5 | 2026-08-30 06:33:51 | 44.65677 | 20.79817 | 250° | 22km/h | 26818m | 5.4m/s | -47.4°C | 1.3% | 0hPa | 5.6V | 00:00:00 | 00:00:00 | 00:00:00 | |
| 9A1FER-3 | 2026-08-30 06:33:43 | 44.65685 | 20.79840 | 220° | 26km/h | 26767m | 6.2m/s | -47.0°C | 0% | 0hPa | 5.6V | 00:00:00 | 00:00:00 | 00:00:00 | |
| 9A1FER-3 | 2026-08-30 06:33:05 | 44.65580 | 20.79854 | 8° | 22km/h | 26498m | 6.7m/s | -47.5°C | 0% | 0hPa | 5.6V | 00:00:00 | 00:00:00 | 00:00:00 | |
| 9A1FER-3 | 2026-08-30 06:32:47 | 44.65434 | 20.79893 | 351° | 33km/h | 26378m | 5.9m/s | -48.0°C | 0% | 0hPa | 5.6V | 00:00:00 | 00:00:00 | 00:00:00 | |
| LZ4TU-5 | 2026-08-30 06:32:27 | 44.65329 | 20.80012 | 305° | 31km/h | 26240m | 8.0m/s | -48.5°C | 1.2% | 0hPa | 5.6V | 00:00:00 | 00:00:00 | 00:00:00 | |
| LZ4TU-5 | 2026-08-30 06:32:22 | 44.65312 | 20.80045 | 257° | 26km/h | 26207m | 5.8m/s | -48.7°C | 1.2% | 0hPa | 5.6V | 00:00:00 | 00:00:00 | 00:00:00 | |
| 9A1FER-3 | 2026-08-30 06:31:53 | 44.65399 | 20.80214 | 94° | 9km/h | 26012m | 6.4m/s | -49.1°C | 0% | 0hPa | 5.6V | 00:00:00 | 00:00:00 | 00:00:00 | |
| 9A1FER-3 | 2026-08-30 06:31:35 | 44.65414 | 20.80237 | 4° | 24km/h | 25892m | 5.3m/s | -49.3°C | 0% | 0hPa | 5.6V | 00:00:00 | 00:00:00 | 00:00:00 | |
| LZ4TU-5 | 2026-08-30 06:30:57 | 44.65243 | 20.80464 | 330° | 29km/h | 25643m | 7.2m/s | -50.8°C | 1.3% | 0hPa | 5.6V | 00:00:00 | 00:00:00 | 00:00:00 | |
| LZ4TU-5 | 2026-08-30 06:30:52 | 44.65236 | 20.80492 | 263° | 24km/h | 25602m | 7.7m/s | -50.8°C | 1.3% | 0hPa | 5.6V | 00:00:00 | 00:00:00 | 00:00:00 | |
| 9A1FER-3 | 2026-08-30 06:30:35 | 44.65218 | 20.80580 | 24° | 15km/h | 25480m | 8.5m/s | -50.1°C | 0% | 0hPa | 5.6V | 00:00:00 | 00:00:00 | 00:00:00 | |
| 9A1FER-3 | 2026-08-30 06:30:16 | 44.65274 | 20.80584 | 174° | 13km/h | 25345m | 5.6m/s | -50.3°C | 0% | 0hPa | 5.6V | 00:00:00 | 00:00:00 | 00:00:00 | |
| 9A1FER-3 | 2026-08-30 06:29:58 | 44.65281 | 20.80531 | 34° | 16km/h | 25222m | 6.3m/s | -50.3°C | 0% | 0hPa | 5.6V | 00:00:00 | 00:00:00 | 00:00:00 | |
| 9A1FER-3 | 2026-08-30 06:29:43 | 44.65262 | 20.80560 | 301° | 20km/h | 25120m | 7.7m/s | -50.5°C | 0% | 0hPa | 5.6V | 00:00:00 | 00:00:00 | 00:00:00 | |
| LZ4TU-5 | 2026-08-30 06:29:19 | 44.65136 | 20.80714 | 320° | 55km/h | 24956m | 5.8m/s | -51.8°C | 1.3% | 0hPa | 5.6V | 00:00:00 | 00:00:00 | 00:00:00 | |
| LZ4TU-5 | 2026-08-30 06:29:14 | 44.65097 | 20.80759 | 319° | 29km/h | 24932m | 5.8m/s | -51.9°C | 1.3% | 0hPa | 5.6V | 00:00:00 | 00:00:00 | 00:00:00 | |
| OE3JTB-15 | 2026-08-30 06:28:39 | 44.64889 | 20.81272 | 279° | 29km/h | 24697m | 7.4m/s | -51.3°C | 0% | 0hPa | 5.6V | 00:00:00 | 00:00:00 | 00:00:00 | |
| OE3JTB-15 | 2026-08-30 06:28:08 | 44.64837 | 20.81568 | 272° | 13km/h | 24489m | 6.3m/s | -50.3°C | 0% | 0hPa | 5.6V | 00:00:00 | 00:00:00 | 00:00:00 | |
| LZ4TU-5 | 2026-08-30 06:27:48 | 44.64858 | 20.81656 | 305° | 7km/h | 24360m | 5.8m/s | -51.9°C | 1.2% | 0hPa | 5.6V | 00:00:00 | 00:00:00 | 00:00:00 | |
| LZ4TU-5 | 2026-08-30 06:27:44 | 44.64861 | 20.81662 | 207° | 11km/h | 24336m | 7.8m/s | -52.0°C | 1.3% | 0hPa | 5.6V | 00:00:00 | 00:00:00 | 00:00:00 | |
| OE3JTB-15 | 2026-08-30 06:27:36 | 44.64882 | 20.81682 | 271° | 18km/h | 24282m | 6.2m/s | -51.9°C | 0% | 0hPa | 5.6V | 00:00:00 | 00:00:00 | 00:00:00 | |
| LZ4TU-5 | 2026-08-30 06:26:19 | 44.64981 | 20.82075 | 215° | 15km/h | 23780m | 6.6m/s | -53.1°C | 1.1% | 0hPa | 5.6V | 00:00:00 | 00:00:00 | 00:00:00 | |
| LZ4TU-5 | 2026-08-30 06:26:14 | 44.64988 | 20.82097 | 253° | 26km/h | 23746m | 6.2m/s | -53.4°C | 1.1% | 0hPa | 5.6V | 00:00:00 | 00:00:00 | 00:00:00 | |
| 9A1FER-3 | 2026-08-30 06:25:19 | 44.65115 | 20.82197 | 171° | 13km/h | 23394m | 6.4m/s | -53.3°C | 0% | 0hPa | 5.6V | 00:00:00 | 00:00:00 | 00:00:00 | |
| 9A1FER-3 | 2026-08-30 06:25:00 | 44.65073 | 20.82253 | 324° | 24km/h | 23272m | 4.1m/s | -53.7°C | 0% | 0hPa | 5.6V | 00:00:00 | 00:00:00 | 00:00:00 | |
| LZ4TU-5 | 2026-08-30 06:24:48 | 44.65042 | 20.82332 | 315° | 33km/h | 23196m | 6.6m/s | -54.4°C | 1.2% | 0hPa | 5.6V | 00:00:00 | 00:00:00 | 00:00:00 | |
| LZ4TU-5 | 2026-08-30 06:24:44 | 44.65025 | 20.82370 | 271° | 27km/h | 23170m | 7.2m/s | -54.5°C | 1.3% | 0hPa | 5.6V | 00:00:00 | 00:00:00 | 00:00:00 | |
| 9A1FER-3 | 2026-08-30 06:24:33 | 44.65019 | 20.82449 | 266° | 18km/h | 23103m | 5.2m/s | -53.6°C | 0% | 0hPa | 5.6V | 00:00:00 | 00:00:00 | 00:00:00 | |
| 9A1FER-3 | 2026-08-30 06:24:15 | 44.65060 | 20.82568 | 263° | 16km/h | 22986m | 6.9m/s | -53.5°C | 0% | 0hPa | 5.6V | 00:00:00 | 00:00:00 | 00:00:00 | |
| OE3JTB-15 | 2026-08-30 06:24:07 | 44.65081 | 20.82609 | 229° | 15km/h | 22938m | 7.3m/s | -53.3°C | 0% | 0hPa | 5.6V | 00:00:00 | 00:00:00 | 00:00:00 | |
| OE3JTB-15 | 2026-08-30 06:23:37 | 44.65101 | 20.82761 | 289° | 16km/h | 22751m | 6.9m/s | -54.0°C | 0% | 0hPa | 5.6V | 00:00:00 | 00:00:00 | 00:00:00 | |
| LZ4TU-5 | 2026-08-30 06:23:19 | 44.65073 | 20.82849 | 301° | 31km/h | 22641m | 4.4m/s | -54.9°C | 1.1% | 0hPa | 5.6V | 00:00:00 | 00:00:00 | 00:00:00 | |
| LZ4TU-5 | 2026-08-30 06:23:14 | 44.65063 | 20.82873 | 350° | 7km/h | 22610m | 8.9m/s | -54.8°C | 1.0% | 0hPa | 5.6V | 00:00:00 | 00:00:00 | 00:00:00 | |
| 9A1FER-3 | 2026-08-30 06:21:54 | 44.65016 | 20.83301 | 295° | 22km/h | 22081m | 4.8m/s | -55.0°C | 0% | 0hPa | 5.6V | 00:00:00 | 00:00:00 | 00:00:00 | |
| LZ4TU-5 | 2026-08-30 06:21:47 | 44.65007 | 20.83353 | 312° | 16km/h | 22039m | 7.0m/s | -55.8°C | 1.0% | 0hPa | 5.6V | 00:00:00 | 00:00:00 | 00:00:00 | |
| LZ4TU-5 | 2026-08-30 06:21:42 | 44.65006 | 20.83371 | 266° | 5km/h | 22007m | 4.9m/s | -55.6°C | 0.9% | 0hPa | 5.6V | 00:00:00 | 00:00:00 | 00:00:00 | |
| 9A1FER-3 | 2026-08-30 06:21:09 | 44.65049 | 20.83581 | 111° | 13km/h | 21806m | 6.4m/s | -54.7°C | 0% | 0hPa | 5.6V | 00:00:00 | 00:00:00 | 00:00:00 | |
| 9A1FER-3 | 2026-08-30 06:20:20 | 44.65014 | 20.83714 | 321° | 16km/h | 21499m | 6.3m/s | -54.5°C | 0% | 0hPa | 5.6V | 00:00:00 | 00:00:00 | 00:00:00 | |
| OE3JTB-15 | 2026-08-30 06:20:14 | 44.64999 | 20.83751 | 257° | 15km/h | 21462m | 5.5m/s | -54.5°C | 0% | 0hPa | 5.6V | 00:00:00 | 00:00:00 | 00:00:00 | |
| LZ4TU-5 | 2026-08-30 06:20:11 | 44.65001 | 20.83768 | 323° | 16km/h | 21445m | 5.7m/s | -55.4°C | 0.9% | 0hPa | 5.6V | 00:00:00 | 00:00:00 | 00:00:00 | |
| LZ4TU-5 | 2026-08-30 06:20:07 | 44.64986 | 20.83782 | 327° | 15km/h | 21423m | 6.9m/s | -55.4°C | 0.9% | 0hPa | 5.6V | 00:00:00 | 00:00:00 | 00:00:00 | |
| 9A1FER-3 | 2026-08-30 06:20:01 | 44.64984 | 20.83812 | 278° | 26km/h | 21384m | 8.1m/s | -54.9°C | 0% | 0hPa | 5.6V | 00:00:00 | 00:00:00 | 00:00:00 | |
| 9A1FER-3 | 2026-08-30 06:19:45 | 44.64937 | 20.83896 | 320° | 7km/h | 21287m | 6.6m/s | -55.1°C | 0% | 0hPa | 5.6V | 00:00:00 | 00:00:00 | 00:00:00 | |
| LZ4TU-5 | 2026-08-30 06:18:41 | 44.64829 | 20.84026 | 323° | 18km/h | 20905m | 5.8m/s | -56.7°C | 1.1% | 0hPa | 5.7V | 00:00:00 | 00:00:00 | 00:00:00 | |
| LZ4TU-5 | 2026-08-30 06:18:36 | 44.64815 | 20.84034 | 244° | 4km/h | 20876m | 5.3m/s | -56.7°C | 1.1% | 0hPa | 5.7V | 00:00:00 | 00:00:00 | 00:00:00 | |
| LZ4TU-5 | 2026-08-30 06:17:11 | 44.64633 | 20.84430 | 0° | 0km/h | 20340m | 4.6m/s | -56.4°C | 1.1% | 0hPa | 5.7V | 00:00:00 | 00:00:00 | 00:00:00 | |
| LZ4TU-5 | 2026-08-30 06:17:06 | 44.64630 | 20.84426 | 354° | 11km/h | 20314m | 4.8m/s | -56.4°C | 1.1% | 0hPa | 5.7V | 00:00:00 | 00:00:00 | 00:00:00 | |
| OE3JTB-15 | 2026-08-30 06:16:08 | 44.64542 | 20.84535 | 264° | 20km/h | 19946m | 6.7m/s | -55.3°C | 0% | 0hPa | 5.7V | 00:00:00 | 00:00:00 | 00:00:00 | |
| LZ4TU-5 | 2026-08-30 06:15:42 | 44.64618 | 20.84654 | 214° | 16km/h | 19787m | 6.3m/s | -55.7°C | 1.3% | 0hPa | 5.7V | 00:00:00 | 00:00:00 | 00:00:00 | |
| OE3JTB-15 | 2026-08-30 06:15:39 | 44.64632 | 20.84658 | 181° | 13km/h | 19768m | 6.5m/s | -54.9°C | 0% | 0hPa | 5.7V | 00:00:00 | 00:00:00 | 00:00:00 | |
| LZ4TU-5 | 2026-08-30 06:15:38 | 44.64638 | 20.84658 | 183° | 18km/h | 19761m | 5.7m/s | -55.8°C | 1.3% | 0hPa | 5.7V | 00:00:00 | 00:00:00 | 00:00:00 | |
| OE3JTB-15 | 2026-08-30 06:15:10 | 44.64706 | 20.84659 | 349° | 7km/h | 19595m | 4.8m/s | -55.3°C | 0% | 0hPa | 5.7V | 00:00:00 | 00:00:00 | 00:00:00 | |
| OE3JTB-15 | 2026-08-30 06:14:41 | 44.64682 | 20.84652 | 234° | 16km/h | 19424m | 5.3m/s | -54.8°C | 0% | 0hPa | 5.7V | 00:00:00 | 00:00:00 | 00:00:00 | |
| LZ4TU-5 | 2026-08-30 06:14:13 | 44.64708 | 20.84745 | 230° | 18km/h | 19264m | 5.9m/s | -55.1°C | 1.3% | 0hPa | 5.7V | 00:00:00 | 00:00:00 | 00:00:00 | |
| LZ4TU-5 | 2026-08-30 06:14:08 | 44.64721 | 20.84753 | 211° | 11km/h | 19232m | 7.7m/s | -55.2°C | 1.3% | 0hPa | 5.7V | 00:00:00 | 00:00:00 | 00:00:00 | |
| LZ4TU-5 | 2026-08-30 06:12:44 | 44.64827 | 20.84596 | 136° | 9km/h | 18731m | 6.2m/s | -56.8°C | 1.8% | 0hPa | 5.7V | 00:00:00 | 00:00:00 | 00:00:00 | |
| LZ4TU-5 | 2026-08-30 06:12:40 | 44.64833 | 20.84579 | 115° | 22km/h | 18709m | 4.3m/s | -56.7°C | 1.8% | 0hPa | 5.7V | 00:00:00 | 00:00:00 | 00:00:00 | |
| OM5KV | 2026-08-30 06:12:34 | 44.64850 | 20.84549 | 145° | 16km/h | 18664m | 6.5m/s | -56.5°C | 1.8% | 0hPa | 5.7V | 00:00:00 | 00:00:00 | 00:00:00 | |
| OM5KV | 2026-08-30 06:12:28 | 44.64864 | 20.84517 | 94° | 24km/h | 18633m | 7.2m/s | -56.5°C | 1.8% | 0hPa | 5.7V | 00:00:00 | 00:00:00 | 00:00:00 | |
| OM5KV | 2026-08-30 06:12:23 | 44.64870 | 20.84479 | 129° | 22km/h | 18603m | 7.6m/s | -56.8°C | 1.9% | 0hPa | 5.7V | 00:00:00 | 00:00:00 | 00:00:00 | |
| OE3JTB-15 | 2026-08-30 06:12:21 | 44.64876 | 20.84464 | 109° | 27km/h | 18591m | 5.0m/s | -55.8°C | 0% | 0hPa | 5.7V | 00:00:00 | 00:00:00 | 00:00:00 | |
| OM5KV | 2026-08-30 06:12:10 | 44.64879 | 20.84366 | 89° | 24km/h | 18526m | 5.4m/s | -56.9°C | 2.0% | 0hPa | 5.7V | 00:00:00 | 00:00:00 | 00:00:00 | |
| OM5KV | 2026-08-30 06:12:09 | 44.64879 | 20.84358 | 92° | 22km/h | 18520m | 6.3m/s | -56.9°C | 2.0% | 0hPa | 5.7V | 00:00:00 | 00:00:00 | 00:00:00 | |
| OM5KV | 2026-08-30 06:11:56 | 44.64879 | 20.84232 | 95° | 22km/h | 18443m | 5.5m/s | -56.7°C | 1.9% | 0hPa | 5.7V | 00:00:00 | 00:00:00 | 00:00:00 | |
| OE3JTB-15 | 2026-08-30 06:11:52 | 44.64874 | 20.84194 | 82° | 31km/h | 18415m | 7.8m/s | -55.8°C | 0% | 0hPa | 5.7V | 00:00:00 | 00:00:00 | 00:00:00 | |
| OM5KV | 2026-08-30 06:11:49 | 44.64874 | 20.84160 | 90° | 35km/h | 18397m | 6.8m/s | -56.5°C | 1.9% | 0hPa | 0V | 00:00:00 | 00:00:00 | 00:00:00 | |
| OM5KV | 2026-08-30 06:11:35 | 44.64882 | 20.84021 | 93° | 24km/h | 18311m | 6.2m/s | -56.1°C | 1.6% | 0hPa | 0V | 00:00:00 | 00:00:00 | 00:00:00 | |
| LZ4TU-5 | 2026-08-30 06:11:16 | 44.64883 | 20.83858 | 86° | 27km/h | 18197m | 4.9m/s | -57.0°C | 1.6% | 0hPa | 0V | 00:00:00 | 00:00:00 | 00:00:00 | |
| LZ4TU-5 | 2026-08-30 06:11:12 | 44.64886 | 20.83827 | 112° | 15km/h | 18168m | 6.9m/s | -57.3°C | 1.5% | 0hPa | 0V | 00:00:00 | 00:00:00 | 00:00:00 | |
| OM5KV | 2026-08-30 06:11:01 | 44.64906 | 20.83744 | 125° | 24km/h | 18105m | 6.3m/s | -58.0°C | 1.6% | 0hPa | 0V | 00:00:00 | 00:00:00 | 00:00:00 | |
| OM5KV | 2026-08-30 06:10:46 | 44.64919 | 20.83661 | 86° | 26km/h | 18011m | 4.5m/s | -58.6°C | 1.8% | 0hPa | 0V | 00:00:00 | 00:00:00 | 00:00:00 | |
| OM5KV | 2026-08-30 06:10:40 | 44.64914 | 20.83607 | 82° | 31km/h | 17983m | 4.5m/s | -59.0°C | 1.9% | 0hPa | 0V | 00:00:00 | 00:00:00 | 00:00:00 | |
| OM5KV | 2026-08-30 06:10:39 | 44.64912 | 20.83597 | 74° | 29km/h | 17976m | 7.2m/s | -59.0°C | 1.9% | 0hPa | 0V | 00:00:00 | 00:00:00 | 00:00:00 | |
| OM5KV | 2026-08-30 06:10:30 | 44.64878 | 20.83523 | 65° | 35km/h | 17921m | 7.0m/s | -59.1°C | 1.9% | 0hPa | 0V | 00:00:00 | 00:00:00 | 00:00:00 | |
| OM5KV | 2026-08-30 06:10:29 | 44.64875 | 20.83513 | 69° | 27km/h | 17916m | 4.6m/s | -59.2°C | 1.9% | 0hPa | 0V | 00:00:00 | 00:00:00 | 00:00:00 | |
| OM5KV | 2026-08-30 06:10:23 | 44.64851 | 20.83480 | 33° | 26km/h | 17879m | 6.9m/s | -58.8°C | 1.8% | 0hPa | 0V | 00:00:00 | 00:00:00 | 00:00:00 | |
| OM5KV | 2026-08-30 06:10:18 | 44.64826 | 20.83440 | 62° | 31km/h | 17849m | 5.8m/s | -58.5°C | 1.7% | 0hPa | 0V | 00:00:00 | 00:00:00 | 00:00:00 | |
| OM5KV | 2026-08-30 06:10:17 | 44.64822 | 20.83431 | 61° | 26km/h | 17844m | 5.0m/s | -58.6°C | 1.8% | 0hPa | 0V | 00:00:00 | 00:00:00 | 00:00:00 | |
| OM5KV | 2026-08-30 06:10:00 | 44.64755 | 20.83361 | 44° | 16km/h | 17744m | 5.8m/s | -59.0°C | 1.8% | 0hPa | 0V | 00:00:00 | 00:00:00 | 00:00:00 | |
| OM5KV | 2026-08-30 06:09:53 | 44.64738 | 20.83340 | 344° | 15km/h | 17702m | 5.8m/s | -59.2°C | 1.7% | 0hPa | 0V | 00:00:00 | 00:00:00 | 00:00:00 | |
| LZ4TU-5 | 2026-08-30 06:09:48 | 44.64721 | 20.83349 | 339° | 11km/h | 17674m | 5.9m/s | -59.3°C | 1.8% | 0hPa | 0V | 00:00:00 | 00:00:00 | 00:00:00 | |
| OM5KV | 2026-08-30 06:09:47 | 44.64719 | 20.83349 | 339° | 4km/h | 17667m | 6.8m/s | -59.2°C | 1.7% | 0hPa | 0V | 00:00:00 | 00:00:00 | 00:00:00 | |
| LZ4TU-5 | 2026-08-30 06:09:43 | 44.64718 | 20.83352 | 350° | 2km/h | 17643m | 6.7m/s | -59.2°C | 1.6% | 0hPa | 0V | 00:00:00 | 00:00:00 | 00:00:00 | |
| OM5KV | 2026-08-30 06:09:41 | 44.64714 | 20.83353 | 353° | 11km/h | 17634m | 3.5m/s | -59.2°C | 1.6% | 0hPa | 0V | 00:00:00 | 00:00:00 | 00:00:00 | |
| OM5KV | 2026-08-30 06:09:33 | 44.64700 | 20.83385 | 215° | 7km/h | 17590m | 5.3m/s | -59.3°C | 1.6% | 0hPa | 0V | 00:00:00 | 00:00:00 | 00:00:00 | |
| OM5KV | 2026-08-30 06:09:27 | 44.64695 | 20.83410 | 301° | 31km/h | 17557m | 4.8m/s | -59.0°C | 1.5% | 0hPa | 0V | 00:00:00 | 00:00:00 | 00:00:00 | |
| OM5KV | 2026-08-30 06:09:22 | 44.64696 | 20.83441 | 188° | 20km/h | 17527m | 7.5m/s | -59.0°C | 1.6% | 0hPa | 0V | 00:00:00 | 00:00:00 | 00:00:00 | |
| OM5KV | 2026-08-30 06:09:15 | 44.64697 | 20.83467 | 286° | 37km/h | 17492m | 4.1m/s | -59.1°C | 1.8% | 0hPa | 0V | 00:00:00 | 00:00:00 | 00:00:00 | |
| OM5KV | 2026-08-30 06:09:09 | 44.64726 | 20.83508 | 182° | 33km/h | 17450m | 6.8m/s | -58.9°C | 2.1% | 0hPa | 0V | 00:00:00 | 00:00:00 | 00:00:00 | |
| OM5KV | 2026-08-30 06:09:07 | 44.64737 | 20.83511 | 215° | 13km/h | 17436m | 7.6m/s | -58.8°C | 2.3% | 0hPa | 0V | 00:00:00 | 00:00:00 | 00:00:00 | |
| OM5KV | 2026-08-30 06:09:01 | 44.64753 | 20.83523 | 206° | 15km/h | 17392m | 4.1m/s | -58.5°C | 2.1% | 0hPa | 0V | 00:00:00 | 00:00:00 | 00:00:00 | |
| OM5KV | 2026-08-30 06:08:56 | 44.64784 | 20.83531 | 188° | 27km/h | 17364m | 6.0m/s | -58.3°C | 2.2% | 0hPa | 0V | 00:00:00 | 00:00:00 | 00:00:00 | |
| OM5KV | 2026-08-30 06:08:55 | 44.64790 | 20.83532 | 193° | 20km/h | 17359m | 4.9m/s | -58.2°C | 2.1% | 0hPa | 0V | 00:00:00 | 00:00:00 | 00:00:00 | |
| OM5KV | 2026-08-30 06:08:51 | 44.64803 | 20.83536 | 194° | 7km/h | 17336m | 6.0m/s | -58.3°C | 2.1% | 0hPa | 0V | 00:00:00 | 00:00:00 | 00:00:00 | |
| OM5KV | 2026-08-30 06:08:49 | 44.64808 | 20.83536 | 177° | 15km/h | 17326m | 6.2m/s | -58.0°C | 2.0% | 0hPa | 0V | 00:00:00 | 00:00:00 | 00:00:00 | |
| OM5KV | 2026-08-30 06:08:45 | 44.64835 | 20.83533 | 181° | 29km/h | 17302m | 5.3m/s | -57.8°C | 1.9% | 0hPa | 0V | 00:00:00 | 00:00:00 | 00:00:00 | |
| LZ4TU-5 | 2026-08-30 06:08:17 | 44.65013 | 20.83464 | 133° | 35km/h | 17125m | 5.0m/s | -57.8°C | 2.1% | 0hPa | 0V | 00:00:00 | 00:00:00 | 00:00:00 | |
| LZ4TU-5 | 2026-08-30 06:08:13 | 44.65050 | 20.83430 | 145° | 42km/h | 17086m | 5.6m/s | -57.9°C | 2.1% | 0hPa | 0V | 00:00:00 | 00:00:00 | 00:00:00 | |
| LZ4TU-5 | 2026-08-30 06:06:48 | 44.65296 | 20.82386 | 79° | 47km/h | 16625m | 6.2m/s | -58.1°C | 2.9% | 0hPa | 0V | 00:00:00 | 00:00:00 | 00:00:00 | |
| LZ4TU-5 | 2026-08-30 06:06:43 | 44.65292 | 20.82319 | 91° | 35km/h | 16596m | 6.2m/s | -57.9°C | 2.8% | 0hPa | 0V | 00:00:00 | 00:00:00 | 00:00:00 | |
| OM5KV | 2026-08-30 06:05:30 | 44.65157 | 20.81315 | 43° | 31km/h | 16206m | 6.3m/s | -58.0°C | 3.1% | 0hPa | 0V | 00:00:00 | 00:00:00 | 00:00:00 | |
| OM5KV | 2026-08-30 06:05:19 | 44.65092 | 20.81218 | 56° | 27km/h | 16148m | 4.7m/s | -58.0°C | 3.3% | 0hPa | 0V | 00:00:00 | 00:00:00 | 00:00:00 | |
| LZ4TU-5 | 2026-08-30 06:05:14 | 44.65072 | 20.81179 | 65° | 27km/h | 16119m | 6.4m/s | -58.0°C | 3.2% | 0hPa | 0V | 00:00:00 | 00:00:00 | 00:00:00 | |
| OM5KV | 2026-08-30 06:04:10 | 44.65028 | 20.80573 | 74° | 24km/h | 15772m | 4.4m/s | -58.5°C | 3.7% | 0hPa | 0V | 00:00:00 | 00:00:00 | 00:00:00 | |
| OM5KV | 2026-08-30 06:04:05 | 44.65027 | 20.80519 | 103° | 33km/h | 15745m | 5.3m/s | -58.3°C | 3.7% | 0hPa | 0V | 00:00:00 | 00:00:00 | 00:00:00 | |
| OM5KV | 2026-08-30 06:03:53 | 44.65018 | 20.80416 | 87° | 33km/h | 15681m | 4.3m/s | -58.5°C | 3.8% | 0hPa | 0V | 00:00:00 | 00:00:00 | 00:00:00 | |
| LZ4TU-5 | 2026-08-30 06:03:47 | 44.65012 | 20.80377 | 73° | 15km/h | 15648m | 4.4m/s | -58.6°C | 3.9% | 0hPa | 0V | 00:00:00 | 00:00:00 | 00:00:00 | |
| OM5KV | 2026-08-30 06:03:45 | 44.65013 | 20.80366 | 109° | 20km/h | 15637m | 5.0m/s | -58.5°C | 4.0% | 0hPa | 0V | 00:00:00 | 00:00:00 | 00:00:00 | |
| OM5KV | 2026-08-30 06:03:42 | 44.65018 | 20.80341 | 109° | 27km/h | 15622m | 4.6m/s | -58.5°C | 4.0% | 0hPa | 0V | 00:00:00 | 00:00:00 | 00:00:00 | |
| OM5KV | 2026-08-30 06:03:33 | 44.65036 | 20.80279 | 125° | 33km/h | 15575m | 5.1m/s | -58.5°C | 4.1% | 0hPa | 0V | 00:00:00 | 00:00:00 | 00:00:00 | |
| OM5KV | 2026-08-30 06:03:30 | 44.65048 | 20.80244 | 111° | 35km/h | 15559m | 5.2m/s | -58.5°C | 4.2% | 0hPa | 0V | 00:00:00 | 00:00:00 | 00:00:00 | |
| OM5KV | 2026-08-30 06:03:18 | 44.65075 | 20.80138 | 104° | 29km/h | 15499m | 5.2m/s | -58.5°C | 4.3% | 0hPa | 0V | 00:00:00 | 00:00:00 | 00:00:00 | |
| OM5KV | 2026-08-30 06:03:10 | 44.65090 | 20.80059 | 115° | 40km/h | 15457m | 4.8m/s | -58.3°C | 4.5% | 0hPa | 0V | 00:00:00 | 00:00:00 | 00:00:00 | |
| OM5KV | 2026-08-30 06:02:59 | 44.65129 | 20.79924 | 120° | 46km/h | 15402m | 4.5m/s | -58.3°C | 4.6% | 0hPa | 0V | 00:00:00 | 00:00:00 | 00:00:00 | |
| OM5KV | 2026-08-30 06:02:46 | 44.65178 | 20.79775 | 119° | 33km/h | 15336m | 5.8m/s | -58.3°C | 4.8% | 0hPa | 0V | 00:00:00 | 00:00:00 | 00:00:00 | |
| OM5KV | 2026-08-30 06:02:40 | 44.65204 | 20.79710 | 131° | 44km/h | 15303m | 6.0m/s | -58.5°C | 5.0% | 0hPa | 0V | 00:00:00 | 00:00:00 | 00:00:00 | |
| LZ4TU-5 | 2026-08-30 06:02:17 | 44.65339 | 20.79375 | 127° | 53km/h | 15183m | 5.4m/s | -57.9°C | 5.4% | 0hPa | 0V | 00:00:00 | 00:00:00 | 00:00:00 | |
| OM5KV | 2026-08-30 06:02:16 | 44.65347 | 20.79360 | 128° | 47km/h | 15178m | 5.0m/s | -57.9°C | 5.4% | 0hPa | 0V | 00:00:00 | 00:00:00 | 00:00:00 | |
| LZ4TU-5 | 2026-08-30 06:02:12 | 44.65368 | 20.79313 | 108° | 40km/h | 15160m | 4.9m/s | -57.9°C | 5.6% | 0hPa | 0V | 00:00:00 | 00:00:00 | 00:00:00 | |
| OM5KV | 2026-08-30 06:00:48 | 44.65656 | 20.77953 | 112° | 27km/h | 14723m | 5.5m/s | -59.1°C | 8.4% | 0hPa | 0V | 00:00:00 | 00:00:00 | 00:00:00 | |
| LZ4TU-5 | 2026-08-30 06:00:43 | 44.65668 | 20.77893 | 98° | 42km/h | 14697m | 6.9m/s | -58.9°C | 8.5% | 0hPa | 0V | 00:00:00 | 00:00:00 | 00:00:00 | |
| LZ4TU-5 | 2026-08-30 05:59:17 | 44.66024 | 20.76518 | 110° | 64km/h | 14226m | 6.1m/s | -58.9°C | 12.7% | 0hPa | 0V | 00:00:00 | 00:00:00 | 00:00:00 | |
| LZ4TU-5 | 2026-08-30 05:59:13 | 44.66045 | 20.76430 | 105° | 66km/h | 14206m | 3.8m/s | -59.1°C | 12.9% | 0hPa | 0V | 00:00:00 | 00:00:00 | 00:00:00 | |
| LZ4TU-5 | 2026-08-30 05:57:48 | 44.66530 | 20.74752 | 110° | 60km/h | 13793m | 6.3m/s | -60.1°C | 15.5% | 0hPa | 0V | 00:00:00 | 00:00:00 | 00:00:00 | |
| LZ4TU-5 | 2026-08-30 05:57:43 | 44.66558 | 20.74649 | 113° | 64km/h | 13761m | 4.9m/s | -60.1°C | 15.6% | 0hPa | 0V | 00:00:00 | 00:00:00 | 00:00:00 | |
| LZ4TU-5 | 2026-08-30 05:56:18 | 44.66908 | 20.72927 | 119° | 57km/h | 13288m | 5.1m/s | -58.7°C | 20.3% | 0hPa | 0V | 00:00:00 | 00:00:00 | 00:00:00 | |
| LZ4TU-5 | 2026-08-30 05:56:13 | 44.66946 | 20.72828 | 119° | 73km/h | 13258m | 5.6m/s | -58.7°C | 20.9% | 0hPa | 0V | 00:00:00 | 00:00:00 | 00:00:00 | |
| LZ4TU-5 | 2026-08-30 05:54:49 | 44.67506 | 20.71031 | 119° | 44km/h | 12833m | 5.3m/s | -58.4°C | 29.1% | 0hPa | 0V | 00:00:00 | 00:00:00 | 00:00:00 | |
| LZ4TU-5 | 2026-08-30 05:54:45 | 44.67528 | 20.70964 | 120° | 62km/h | 12814m | 4.7m/s | -58.3°C | 29.2% | 0hPa | 0V | 00:00:00 | 00:00:00 | 00:00:00 | |
| LZ4TU-5 | 2026-08-30 05:54:40 | 44.67564 | 20.70877 | 119° | 53km/h | 12787m | 4.9m/s | -58.1°C | 29.3% | 0hPa | 0V | 00:00:00 | 00:00:00 | 00:00:00 | |
| LZ4TU-5 | 2026-08-30 05:53:09 | 44.68153 | 20.69080 | 107° | 60km/h | 12247m | 9.6m/s | -56.0°C | 35.4% | 0hPa | 0V | 00:00:00 | 00:00:00 | 00:00:00 | |
| LZ4TU-5 | 2026-08-30 05:51:32 | 44.68747 | 20.66961 | 120° | 82km/h | 11694m | 4.9m/s | -53.6°C | 46.9% | 0hPa | 0V | 00:00:00 | 00:00:00 | 00:00:00 | |
| LZ4TU-5 | 2026-08-30 05:51:28 | 44.68782 | 20.66884 | 129° | 57km/h | 11669m | 5.3m/s | -53.5°C | 47.0% | 0hPa | 0V | 00:00:00 | 00:00:00 | 00:00:00 | |
| LZ4TU-5 | 2026-08-30 05:51:23 | 44.68827 | 20.66772 | 114° | 84km/h | 11634m | 6.4m/s | -53.2°C | 47.0% | 0hPa | 0V | 00:00:00 | 00:00:00 | 00:00:00 | |
| LZ4TU-5 | 2026-08-30 05:51:18 | 44.68869 | 20.66660 | 121° | 58km/h | 11599m | 6.1m/s | -53.0°C | 46.8% | 0hPa | 0V | 00:00:00 | 00:00:00 | 00:00:00 | |
| LZ4TU-5 | 2026-08-30 05:49:48 | 44.69661 | 20.64673 | 100° | 75km/h | 11126m | 5.2m/s | -49.6°C | 47.0% | 0hPa | 0V | 00:00:00 | 00:00:00 | 00:00:00 | |
| LZ4TU-5 | 2026-08-30 05:49:43 | 44.69693 | 20.64561 | 132° | 71km/h | 11096m | 10.8m/s | -49.4°C | 46.9% | 0hPa | 0V | 00:00:00 | 00:00:00 | 00:00:00 | |
| LZ4TU-5 | 2026-08-30 05:48:19 | 44.70439 | 20.62999 | 124° | 53km/h | 10624m | 5.1m/s | -45.2°C | 42.9% | 0hPa | 0V | 00:00:00 | 00:00:00 | 00:00:00 | |
| LZ4TU-5 | 2026-08-30 05:48:15 | 44.70470 | 20.62929 | 122° | 66km/h | 10605m | 5.0m/s | -45.1°C | 43.0% | 0hPa | 0V | 00:00:00 | 00:00:00 | 00:00:00 | |
| LZ4TU-5 | 2026-08-30 05:46:49 | 44.71120 | 20.61441 | 122° | 58km/h | 10151m | 5.1m/s | -41.5°C | 47.2% | 0hPa | 0V | 00:00:00 | 00:00:00 | 00:00:00 | |
| LZ4TU-5 | 2026-08-30 05:46:44 | 44.71162 | 20.61356 | 131° | 51km/h | 10125m | 5.9m/s | -41.5°C | 48.7% | 0hPa | 0V | 00:00:00 | 00:00:00 | 00:00:00 | |
| LZ4TU-5 | 2026-08-30 05:45:19 | 44.71649 | 20.59749 | 100° | 53km/h | 9687m | 6.3m/s | -38.0°C | 48.2% | 0hPa | 0V | 00:00:00 | 00:00:00 | 00:00:00 | |
| LZ4TU-5 | 2026-08-30 05:45:14 | 44.71679 | 20.59678 | 122° | 53km/h | 9647m | 6.2m/s | -37.8°C | 48.4% | 0hPa | 0V | 00:00:00 | 00:00:00 | 00:00:00 | |
| LZ4TU-5 | 2026-08-30 05:43:51 | 44.72178 | 20.58149 | 116° | 64km/h | 9176m | 5.0m/s | -33.5°C | 38.7% | 0hPa | 0V | 00:00:00 | 00:00:00 | 00:00:00 | |
| LZ4TU-5 | 2026-08-30 05:43:47 | 44.72195 | 20.58073 | 110° | 53km/h | 9157m | 5.0m/s | -33.3°C | 38.5% | 0hPa | 0V | 00:00:00 | 00:00:00 | 00:00:00 | |
| LZ4TU-5 | 2026-08-30 05:42:24 | 44.72578 | 20.56502 | 92° | 66km/h | 8708m | 4.6m/s | -29.2°C | 33.2% | 0hPa | 0V | 00:00:00 | 00:00:00 | 00:00:00 | |
| LZ4TU-5 | 2026-08-30 05:42:19 | 44.72605 | 20.56384 | 113° | 57km/h | 8678m | 7.3m/s | -29.0°C | 33.7% | 0hPa | 0V | 00:00:00 | 00:00:00 | 00:00:00 | |
| LZ4TU-5 | 2026-08-30 05:40:59 | 44.72961 | 20.54786 | 108° | 62km/h | 8234m | 4.9m/s | -25.9°C | 33.2% | 0hPa | 0V | 00:00:00 | 00:00:00 | 00:00:00 | |
| LZ4TU-5 | 2026-08-30 05:40:54 | 44.72998 | 20.54672 | 118° | 66km/h | 8208m | 3.6m/s | -25.8°C | 33.9% | 0hPa | 0V | 00:00:00 | 00:00:00 | 00:00:00 | |
| LZ4TU-5 | 2026-08-30 05:39:34 | 44.73419 | 20.53206 | 93° | 58km/h | 7732m | 6.2m/s | -22.9°C | 49.1% | 0hPa | 0V | 00:00:00 | 00:00:00 | 00:00:00 | |
| LZ4TU-5 | 2026-08-30 05:39:29 | 44.73429 | 20.53092 | 106° | 46km/h | 7708m | 6.9m/s | -22.7°C | 50.9% | 0hPa | 0V | 00:00:00 | 00:00:00 | 00:00:00 | |
| LZ4TU-5 | 2026-08-30 05:38:01 | 44.73660 | 20.51617 | 122° | 44km/h | 7210m | 8.0m/s | -18.7°C | 32.6% | 0hPa | 0V | 00:00:00 | 00:00:00 | 00:00:00 | |
| LZ4TU-5 | 2026-08-30 05:37:56 | 44.73693 | 20.51542 | 109° | 29km/h | 7178m | 6.3m/s | -18.4°C | 30.5% | 0hPa | 0V | 00:00:00 | 00:00:00 | 00:00:00 | |
| LZ4TU-5 | 2026-08-30 05:36:35 | 44.73978 | 20.50386 | 136° | 27km/h | 6705m | 6.1m/s | -15.2°C | 28.1% | 0hPa | 0V | 00:00:00 | 00:00:00 | 00:00:00 | |
| LZ4TU-5 | 2026-08-30 05:36:30 | 44.74018 | 20.50330 | 123° | 60km/h | 6679m | 5.8m/s | -15.3°C | 28.8% | 0hPa | 0V | 00:00:00 | 00:00:00 | 00:00:00 | |
| LZ4TU-5 | 2026-08-30 05:34:12 | 44.74698 | 20.48442 | 143° | 64km/h | 5941m | 4.1m/s | -11.1°C | 42.8% | 0hPa | 0V | 00:00:00 | 00:00:00 | 00:00:00 | |
| LZ4TU-5 | 2026-08-30 05:34:08 | 44.74747 | 20.48382 | 125° | 62km/h | 5925m | 5.8m/s | -11.0°C | 40.7% | 0hPa | 0V | 00:00:00 | 00:00:00 | 00:00:00 | |
| LZ4TU-5 | 2026-08-30 05:33:01 | 44.75183 | 20.47423 | 119° | 42km/h | 5557m | 6.5m/s | -8.6°C | 31.1% | 0hPa | 0V | 00:00:00 | 00:00:00 | 00:00:00 | |
| LZ4TU-5 | 2026-08-30 05:32:56 | 44.75220 | 20.47388 | 153° | 53km/h | 5526m | 4.2m/s | -8.3°C | 30.8% | 0hPa | 0V | 00:00:00 | 00:00:00 | 00:00:00 | |
| LZ4TU-5 | 2026-08-30 05:31:48 | 44.75609 | 20.46750 | 133° | 57km/h | 5160m | 7.2m/s | -5.2°C | 30.2% | 0hPa | 0V | 00:00:00 | 00:00:00 | 00:00:00 | |
| LZ4TU-5 | 2026-08-30 05:31:44 | 44.75658 | 20.46708 | 154° | 40km/h | 5142m | 4.7m/s | -5.0°C | 30.0% | 0hPa | 0V | 00:00:00 | 00:00:00 | 00:00:00 | |
| LZ4TU-5 | 2026-08-30 05:31:40 | 44.75668 | 20.46684 | 103° | 22km/h | 5119m | 4.1m/s | -4.8°C | 30.0% | 0hPa | 0V | 00:00:00 | 00:00:00 | 00:00:00 | |
| LZ4TU-5 | 2026-08-30 05:30:31 | 44.76049 | 20.46146 | 151° | 44km/h | 4748m | 5.2m/s | -1.8°C | 26.9% | 0hPa | 0V | 00:00:00 | 00:00:00 | 00:00:00 | |
| LZ4TU-5 | 2026-08-30 05:30:26 | 44.76060 | 20.46093 | 93° | 16km/h | 4721m | 4.9m/s | -1.7°C | 26.6% | 0hPa | 0V | 00:00:00 | 00:00:00 | 00:00:00 | |
| LZ4TU-5 | 2026-08-30 05:29:18 | 44.76417 | 20.45649 | 142° | 33km/h | 4357m | 5.8m/s | 0.3°C | 30.0% | 0hPa | 0V | 00:00:00 | 00:00:00 | 00:00:00 | |
| LZ4TU-5 | 2026-08-30 05:29:13 | 44.76445 | 20.45587 | 96° | 33km/h | 4328m | 5.8m/s | 0.5°C | 26.1% | 0hPa | 0V | 00:00:00 | 00:00:00 | 00:00:00 |